This is the latest recevied weather packets stored in our database for station/object DL2DHM-13. If no packets are shown the sender has not sent any weather packets the latest 10 day(s).
| Time | Temp. | Humidity | Pressure | Rain* | Wind** | Luminosity | Snow |
|---|---|---|---|---|---|---|---|
| 1777827348 | 20° C | 55% | 1008.8 hPa | 0 mm | - | 51 W/m² | - |
| 1777826744 | 20° C | 54% | 1008.7 hPa | 0 mm | - | 69 W/m² | - |
| 1777825243 | 21.11° C | 51% | 1008.4 hPa | 0 mm | - | 120 W/m² | - |
| 1777823147 | 21.67° C | 48% | 1008.3 hPa | 0 mm | - | 178 W/m² | - |
| 1777819838 | 22.22° C | 42% | 1008.4 hPa | 0 mm | - | 218 W/m² | - |
| 1777819237 | 22.78° C | 41% | 1008.4 hPa | 0 mm | - | 213 W/m² | - |
| 1777815939 | 24.44° C | 37% | 1008.3 hPa | 0 mm | - | 724 W/m² | - |
| 1777812327 | 23.89° C | 38% | 1008.8 hPa | 0 mm | - | 394 W/m² | - |
| 1777811726 | 23.33° C | 38% | 1008.8 hPa | 0 mm | - | 327 W/m² | - |
| 1777809925 | 24.44° C | 36% | 1008.9 hPa | 0 mm | - | 686 W/m² | - |
| 1777808722 | 25° C | 37% | 1009 hPa | 0 mm | - | 708 W/m² | - |
| 1777806015 | 23.89° C | 42% | 1009.5 hPa | 0 mm | - | 675 W/m² | - |
| 1777805413 | 23.89° C | 38% | 1009.6 hPa | 0 mm | - | 728 W/m² | - |
| 1777803607 | 23.33° C | 41% | 1009.8 hPa | 0 mm | - | 689 W/m² | - |
| 1777803005 | 22.78° C | 41% | 1010 hPa | 0 mm | - | 612 W/m² | - |
| 1777802705 | 23.33° C | 44% | 1010.1 hPa | 0 mm | - | 483 W/m² | - |
| 1777800356 | 22.78° C | 52% | 1010.2 hPa | 0 mm | - | 636 W/m² | - |
| 1777799453 | 21.67° C | 60% | 1010.2 hPa | 0 mm | - | 668 W/m² | - |
| 1777797963 | 19.44° C | 64% | 1010.4 hPa | 0 mm | - | 316 W/m² | - |
| 1777797644 | 19.44° C | 66% | 1010.4 hPa | 0 mm | - | 454 W/m² | - |
| 1777796743 | 18.89° C | 66% | 1010.6 hPa | 0 mm | - | 278 W/m² | - |
| 1777793438 | 17.22° C | 71% | 1010.6 hPa | 0 mm | - | 396 W/m² | - |
| 1777791628 | 16.67° C | 73% | 1010.3 hPa | 0 mm | - | 320 W/m² | - |
| 1777791325 | 16.11° C | 74% | 1010.3 hPa | 0 mm | - | 343 W/m² | - |
| 1777788921 | 14.44° C | 82% | 1010.6 hPa | 0 mm | - | 142 W/m² | - |
* Rain latest hour (hover to see other rain measurements)
** Current wind speed in m/s (hover to see current wind gust speed)